Startpagina
METAR-TAF:

METAR-TAF

Vliegvelden :

Gran Canaria, Spanje

Aeropuerto de Gran Canaria

breedte: 27-56N, lengte: 015-23W, hoogte: 23 m

Actueel weer

Dit bericht is 49 minuten geleden gemaakt, om 18:30 UTC
Wind 13 kt uit het noordnoordoosten
Temperatuur 23°C
Vochtigheid 73%
Druk 1021 hPa
Zicht 10 km of meer
Weinig wolken op 2000 ft

METAR: GCLP 211830Z 02013KT 9999 FEW020 23/18 Q1021 NOSIG

Tijdstip: 20:19 (19:19 UTC)

Verwachting

Dit bericht is 5 uur en het 19 minuten geleden gemaakt, om 14:00 UTC
Verwachting geldig van 21 om 15 UTC tot 22 om 15 UTC
Wind 19 kt uit het noordnoordoosten
Zicht 10 km of meer
Gebroken wolken op 3500 ft
Kans 30% :
Tijdelijke
van 21 om 15 UTC tot 21 om 17 UTC
motregen
Tijdelijke
van 21 om 23 UTC tot 22 om 15 UTC
motregen

TAF: GCLP 211400Z 2115/2215 02019KT 9999 BKN035 TX26/2213Z TN21/2206Z PROB30 TEMPO 2115/2117 DZ TEMPO 2123/2215 DZ

Waarnemingen en weersverwachtingen van meer dan 4000 vliegvelden (METAR en TAF).

De beschikbare stations zijn de gele en rode punten op de kaart.

Ga met uw muis naar het station om de naam te zien.

Klik dan om waarnemingen en weersverwachtingen te zien.

kaart wijzigen: klik op de groene knoppen met een zwart kruis om in te zoomen, op de groene knop met een streepje om uit te zoomen of op de groene pijlen voor aangrenzende kaarten.


METAR-TAF: